createdAt,value
2019-02-25T00:01:16.903Z,8.97
2019-02-25T00:03:45.035Z,8.23
2019-02-25T00:06:13.457Z,8.33
2019-02-25T00:08:41.741Z,8.47
2019-02-25T00:11:09.887Z,8.10
2019-02-25T00:13:38.020Z,8.80
2019-02-25T00:16:06.278Z,8.17
2019-02-25T00:18:34.433Z,8.40
2019-02-25T00:21:02.575Z,8.47
2019-02-25T00:23:30.782Z,8.97
2019-02-25T00:25:58.921Z,8.10
2019-02-25T00:28:27.064Z,8.20
2019-02-25T00:30:55.357Z,7.97
2019-02-25T00:33:23.520Z,8.30
2019-02-25T00:35:51.654Z,8.23
2019-02-25T00:38:19.958Z,7.50
2019-02-25T00:40:48.101Z,8.03
2019-02-25T00:43:16.233Z,8.33
2019-02-25T00:45:44.401Z,8.23
2019-02-25T00:48:12.621Z,8.57
2019-02-25T00:50:40.753Z,8.63
2019-02-25T00:53:08.950Z,9.60
2019-02-25T00:55:37.112Z,9.20
2019-02-25T00:58:05.320Z,9.07
2019-02-25T01:00:33.682Z,8.90
2019-02-25T01:03:01.831Z,9.33
2019-02-25T01:05:29.961Z,8.47
2019-02-25T01:07:58.133Z,8.70
2019-02-25T01:10:26.344Z,9.10
2019-02-25T01:12:54.482Z,8.40
2019-02-25T01:15:22.949Z,9.03
2019-02-25T01:17:51.101Z,8.30
2019-02-25T01:20:19.247Z,8.20
2019-02-25T01:22:47.453Z,8.63
2019-02-25T01:25:18.519Z,8.50
2019-02-25T01:27:46.654Z,7.70
2019-02-25T01:30:16.024Z,8.20
2019-02-25T01:32:44.240Z,8.03
2019-02-25T01:35:12.859Z,8.13
2019-02-25T01:37:41.203Z,8.60
2019-02-25T01:40:10.324Z,8.30
2019-02-25T01:42:38.463Z,8.40
2019-02-25T01:45:08.275Z,8.33
2019-02-25T01:47:36.423Z,8.47
2019-02-25T01:50:05.837Z,8.07
2019-02-25T01:52:33.994Z,8.10
2019-02-25T01:55:02.159Z,8.33
2019-02-25T01:57:30.312Z,8.13
2019-02-25T01:59:58.845Z,8.33
2019-02-25T02:02:26.994Z,8.70
2019-02-25T02:04:55.149Z,8.13
2019-02-25T02:07:23.445Z,8.77
2019-02-25T02:09:51.597Z,8.27
2019-02-25T02:12:19.742Z,7.77
2019-02-25T02:14:47.937Z,8.37
2019-02-25T02:17:16.085Z,8.33
2019-02-25T02:19:44.219Z,8.93
2019-02-25T02:22:13.017Z,8.40
2019-02-25T02:24:41.157Z,8.73
2019-02-25T02:27:09.310Z,8.60
2019-02-25T02:29:37.838Z,8.00
2019-02-25T02:32:05.978Z,8.80
2019-02-25T02:34:34.137Z,8.23
2019-02-25T02:37:02.462Z,8.23
2019-02-25T02:39:30.639Z,7.87
2019-02-25T02:42:06.375Z,8.27
2019-02-25T02:44:34.538Z,7.57
2019-02-25T02:47:13.390Z,7.67
2019-02-25T02:49:41.538Z,7.83
2019-02-25T02:52:09.745Z,7.77
2019-02-25T02:54:37.924Z,7.53
2019-02-25T02:57:06.086Z,7.73
2019-02-25T02:59:34.255Z,7.73
2019-02-25T03:02:02.575Z,7.80
2019-02-25T03:04:30.723Z,8.17
2019-02-25T03:06:58.974Z,8.10
2019-02-25T03:09:27.303Z,7.53
2019-02-25T03:11:55.481Z,7.50
2019-02-25T03:14:23.680Z,8.27
2019-02-25T03:16:51.825Z,8.60
2019-02-25T03:19:19.960Z,7.37
2019-02-25T03:21:48.114Z,7.73
2019-02-25T03:24:16.319Z,7.53
2019-02-25T03:26:44.457Z,7.50
2019-02-25T03:29:12.614Z,7.90
2019-02-25T03:31:41.078Z,7.90
2019-02-25T03:34:09.290Z,8.13
2019-02-25T03:36:37.424Z,7.57
2019-02-25T03:39:06.868Z,8.27
2019-02-25T03:41:35.003Z,8.10
2019-02-25T03:44:03.151Z,8.80
2019-02-25T03:46:31.486Z,7.97
2019-02-25T03:48:59.706Z,8.30
2019-02-25T03:51:27.857Z,8.70
2019-02-25T03:53:56.033Z,8.60
2019-02-25T03:56:24.182Z,8.20
2019-02-25T03:58:52.316Z,8.70
2019-02-25T04:01:20.774Z,8.23
2019-02-25T04:03:48.951Z,8.47
2019-02-25T04:06:17.090Z,8.07
2019-02-25T04:08:45.467Z,7.93
2019-02-25T04:11:13.609Z,7.93
2019-02-25T04:13:41.745Z,8.13
2019-02-25T04:16:10.226Z,7.97
2019-02-25T04:18:38.371Z,7.80
2019-02-25T04:21:06.513Z,8.13
2019-02-25T04:23:35.026Z,8.23
2019-02-25T04:26:03.177Z,7.80
2019-02-25T04:28:31.329Z,7.73
2019-02-25T04:30:59.473Z,7.97
2019-02-25T04:33:27.641Z,8.90
2019-02-25T04:35:55.894Z,7.90
2019-02-25T04:38:24.355Z,8.27
2019-02-25T04:40:52.492Z,7.77
2019-02-25T04:43:23.226Z,7.60
2019-02-25T04:45:51.435Z,7.87
2019-02-25T04:48:19.576Z,7.87
2019-02-25T04:50:47.729Z,7.23
2019-02-25T04:53:15.882Z,8.07
2019-02-25T04:55:44.031Z,7.73
2019-02-25T04:58:12.187Z,7.50
2019-02-25T05:00:40.378Z,7.43
2019-02-25T05:03:08.528Z,8.33
2019-02-25T05:05:36.677Z,8.30
2019-02-25T05:08:04.987Z,7.80
2019-02-25T05:10:33.134Z,7.80
2019-02-25T05:13:03.150Z,8.00
2019-02-25T05:15:32.501Z,7.67
2019-02-25T05:18:00.635Z,7.93
2019-02-25T05:20:28.785Z,7.97
2019-02-25T05:22:57.211Z,7.40
2019-02-25T05:25:25.342Z,7.53
2019-02-25T05:27:53.505Z,7.53
2019-02-25T05:30:21.843Z,7.53
2019-02-25T05:32:50.012Z,8.10
2019-02-25T05:35:18.138Z,7.57
2019-02-25T05:37:46.472Z,7.80
2019-02-25T05:40:20.913Z,7.30
2019-02-25T05:42:49.170Z,7.97
2019-02-25T05:45:17.607Z,7.80
2019-02-25T05:47:45.813Z,7.30
2019-02-25T05:50:14.765Z,7.50
2019-02-25T05:52:42.965Z,7.70
2019-02-25T05:55:12.083Z,7.80
2019-02-25T05:57:40.278Z,8.10
2019-02-25T06:00:17.122Z,7.53
2019-02-25T06:02:45.317Z,7.77
2019-02-25T06:05:13.524Z,7.80
2019-02-25T06:07:41.710Z,7.60
2019-02-25T06:10:10.667Z,7.50
2019-02-25T06:12:38.813Z,7.60
2019-02-25T06:15:08.633Z,7.53
2019-02-25T06:17:36.777Z,7.80
2019-02-25T06:20:06.389Z,7.60
2019-02-25T06:22:34.779Z,7.40
2019-02-25T06:25:03.091Z,7.63
2019-02-25T06:27:31.240Z,8.43
2019-02-25T06:29:59.401Z,8.37
2019-02-25T06:32:27.538Z,8.43
2019-02-25T06:34:55.678Z,8.07
2019-02-25T06:37:23.908Z,8.20
2019-02-25T06:39:52.073Z,8.23
2019-02-25T06:42:20.219Z,8.80
2019-02-25T06:44:48.571Z,8.40
2019-02-25T06:47:16.734Z,8.20
2019-02-25T06:49:44.880Z,7.87
2019-02-25T06:52:13.071Z,8.23
2019-02-25T06:54:41.206Z,9.10
2019-02-25T06:57:09.334Z,7.73
2019-02-25T06:59:37.630Z,8.30
2019-02-25T07:02:05.771Z,8.33
2019-02-25T07:04:35.540Z,8.60
2019-02-25T07:07:05.457Z,8.40
2019-02-25T07:09:38.969Z,8.10
2019-02-25T07:12:11.677Z,8.07
2019-02-25T07:14:50.418Z,7.93
2019-02-25T07:17:28.914Z,7.50
2019-02-25T07:20:16.767Z,7.50
2019-02-25T07:22:52.408Z,7.27
2019-02-25T07:25:34.228Z,7.80
2019-02-25T07:28:09.883Z,7.77
2019-02-25T07:30:39.661Z,7.93
2019-02-25T07:33:18.110Z,8.13
2019-02-25T07:35:48.362Z,8.07
2019-02-25T07:38:24.060Z,8.80
2019-02-25T07:40:59.417Z,8.27
2019-02-25T07:43:43.862Z,8.90
2019-02-25T07:46:16.384Z,8.67
2019-02-25T07:48:48.721Z,8.63
2019-02-25T07:51:18.507Z,8.40
2019-02-25T07:53:51.148Z,8.47
2019-02-25T07:56:21.015Z,8.97
2019-02-25T07:58:53.773Z,9.20
2019-02-25T08:01:32.877Z,8.67
2019-02-25T08:04:05.506Z,8.63
2019-02-25T08:06:47.239Z,8.60
2019-02-25T08:09:19.795Z,8.23
2019-02-25T08:11:55.311Z,8.43
2019-02-25T08:14:41.045Z,8.70
2019-02-25T08:17:10.915Z,9.10
2019-02-25T08:19:46.291Z,9.17
2019-02-25T08:22:16.403Z,9.10
2019-02-25T08:24:51.757Z,9.23
2019-02-25T08:27:37.552Z,9.13
2019-02-25T08:30:09.126Z,8.43
2019-02-25T08:32:38.893Z,9.30
2019-02-25T08:35:22.147Z,8.93
2019-02-25T08:38:08.933Z,9.40
2019-02-25T08:40:40.509Z,8.60
2019-02-25T08:43:13.881Z,8.57
2019-02-25T08:45:45.337Z,9.43
2019-02-25T08:48:15.138Z,9.33
2019-02-25T08:50:43.265Z,9.33
2019-02-25T08:53:11.814Z,9.03
2019-02-25T08:55:43.009Z,9.40
2019-02-25T08:58:11.269Z,9.17
2019-02-25T09:00:44.650Z,9.53
2019-02-25T09:03:12.869Z,9.07
2019-02-25T09:05:43.974Z,9.00
2019-02-25T09:08:14.183Z,8.17
2019-02-25T09:10:45.499Z,9.30
2019-02-25T09:13:18.181Z,8.57
2019-02-25T09:15:46.492Z,8.23
2019-02-25T09:18:14.622Z,9.78
2019-02-25T09:20:44.521Z,8.97
2019-02-25T09:23:16.321Z,9.20
2019-02-25T09:25:44.466Z,9.30
2019-02-25T09:28:12.630Z,9.07
2019-02-25T09:30:40.795Z,8.77
2019-02-25T09:33:10.643Z,9.07
2019-02-25T09:35:38.787Z,8.93
2019-02-25T09:38:07.211Z,8.43
2019-02-25T09:40:37.193Z,9.13
2019-02-25T09:43:10.533Z,9.23
2019-02-25T09:45:39.183Z,8.23
2019-02-25T09:48:07.366Z,8.33
2019-02-25T09:50:35.520Z,9.20
2019-02-25T09:53:03.897Z,8.73
2019-02-25T09:55:32.118Z,9.38
2019-02-25T09:58:00.305Z,9.08
2019-02-25T10:00:28.580Z,9.58
2019-02-25T10:02:56.818Z,9.50
2019-02-25T10:05:25.066Z,8.85
2019-02-25T10:07:53.391Z,9.10
2019-02-25T10:10:21.526Z,8.78
2019-02-25T10:12:49.668Z,8.53
2019-02-25T10:15:22.501Z,9.43
2019-02-25T10:17:50.657Z,9.10
2019-02-25T10:20:18.959Z,8.80
2019-02-25T10:22:47.258Z,9.25
2019-02-25T10:25:15.423Z,9.08
2019-02-25T10:27:43.587Z,8.98
2019-02-25T10:30:17.209Z,8.95
2019-02-25T10:32:45.361Z,8.68
2019-02-25T10:35:15.034Z,8.73
2019-02-25T10:37:43.856Z,8.73
2019-02-25T10:40:13.641Z,8.78
2019-02-25T10:42:42.749Z,8.70
2019-02-25T10:45:13.551Z,9.10
2019-02-25T10:47:43.861Z,8.48
2019-02-25T10:50:12.350Z,8.43
2019-02-25T10:52:41.210Z,8.80
2019-02-25T10:55:28.559Z,8.50
2019-02-25T10:57:57.655Z,8.93
2019-02-25T11:00:26.932Z,9.00
2019-02-25T11:02:56.455Z,8.75
2019-02-25T11:05:27.669Z,8.85
2019-02-25T11:07:55.074Z,8.98
2019-02-25T11:10:30.851Z,8.40
2019-02-25T11:12:59.929Z,8.78
2019-02-25T11:15:37.455Z,9.58
2019-02-25T11:18:06.781Z,9.10
2019-02-25T11:20:35.878Z,9.20
2019-02-25T11:23:04.801Z,9.10
2019-02-25T11:25:33.205Z,9.13
2019-02-25T11:28:04.380Z,8.73
2019-02-25T11:30:34.298Z,8.80
2019-02-25T11:33:02.589Z,9.70
2019-02-25T11:35:30.741Z,9.25
2019-02-25T11:38:01.084Z,9.08
2019-02-25T11:40:31.063Z,8.88
2019-02-25T11:42:58.935Z,9.33
2019-02-25T11:45:27.086Z,8.50
2019-02-25T11:47:55.260Z,8.93
2019-02-25T11:50:23.451Z,8.98
2019-02-25T11:52:51.590Z,8.78
2019-02-25T11:55:21.828Z,7.87
2019-02-25T11:57:49.594Z,8.43
2019-02-25T12:00:18.814Z,9.38
2019-02-25T12:02:47.142Z,8.10
2019-02-25T12:05:15.971Z,8.75
2019-02-25T12:07:44.321Z,8.90
2019-02-25T12:10:13.444Z,8.80
2019-02-25T12:12:41.594Z,8.90
2019-02-25T12:15:14.215Z,8.45
2019-02-25T12:17:42.536Z,9.23
2019-02-25T12:20:11.581Z,8.78
2019-02-25T12:22:39.737Z,9.38
2019-02-25T12:25:09.758Z,9.30
2019-02-25T12:27:37.906Z,9.63
2019-02-25T12:30:07.595Z,9.50
2019-02-25T12:32:35.770Z,9.05
2019-02-25T12:35:04.978Z,9.00
2019-02-25T12:37:33.121Z,8.30
2019-02-25T12:40:01.324Z,8.50
2019-02-25T12:42:29.466Z,8.15
2019-02-25T12:44:57.662Z,8.70
2019-02-25T12:47:25.916Z,8.43
2019-02-25T12:49:54.069Z,7.78
2019-02-25T12:52:22.225Z,8.60
2019-02-25T12:54:50.397Z,8.33
2019-02-25T12:57:20.732Z,7.47
2019-02-25T12:59:48.899Z,6.60
2019-02-25T13:02:17.417Z,7.00
2019-02-25T13:04:45.558Z,6.53
2019-02-25T13:07:13.698Z,6.90
2019-02-25T13:09:44.451Z,6.30
2019-02-25T13:12:12.600Z,7.20
2019-02-25T13:14:40.745Z,7.50
2019-02-25T13:17:09.045Z,7.17
2019-02-25T13:19:37.229Z,7.20
2019-02-25T13:22:05.443Z,7.05
2019-02-25T13:24:35.196Z,6.40
2019-02-25T13:27:05.667Z,6.35
2019-02-25T13:29:36.780Z,7.47
2019-02-25T13:32:05.139Z,7.10
2019-02-25T13:34:33.364Z,7.03
2019-02-25T13:37:01.690Z,6.35
2019-02-25T13:39:34.482Z,5.70
2019-02-25T13:42:02.685Z,4.42
2019-02-25T13:44:30.916Z,4.28
2019-02-25T13:46:59.181Z,4.50
2019-02-25T13:49:27.386Z,3.75
2019-02-25T13:51:55.530Z,4.30
2019-02-25T13:54:23.754Z,4.03
2019-02-25T13:56:52.178Z,3.80
2019-02-25T13:59:20.335Z,3.33
2019-02-25T14:01:49.001Z,3.20
2019-02-25T14:04:17.187Z,3.60
2019-02-25T14:06:45.398Z,3.55
2019-02-25T14:09:14.047Z,3.52
2019-02-25T14:11:42.479Z,3.60
2019-02-25T14:14:11.166Z,2.70
2019-02-25T14:16:39.534Z,3.27
2019-02-25T14:19:10.354Z,2.70
2019-02-25T14:21:38.546Z,2.25
2019-02-25T14:24:06.751Z,2.37
2019-02-25T14:26:37.423Z,2.33
2019-02-25T14:29:06.932Z,2.65
2019-02-25T14:31:35.200Z,2.58
2019-02-25T14:34:04.295Z,3.25
2019-02-25T14:36:32.545Z,2.77
2019-02-25T14:39:02.228Z,2.30
2019-02-25T14:41:30.798Z,2.40
2019-02-25T14:43:59.019Z,2.65
2019-02-25T14:46:27.277Z,2.60
2019-02-25T14:48:55.494Z,1.95
2019-02-25T14:51:23.726Z,2.10
2019-02-25T14:53:54.767Z,1.90
2019-02-25T14:56:22.030Z,1.70
2019-02-25T14:58:50.474Z,1.85
2019-02-25T15:01:20.531Z,1.90
2019-02-25T15:03:48.584Z,2.20
2019-02-25T15:06:16.862Z,2.10
2019-02-25T15:08:45.222Z,1.98
2019-02-25T15:11:13.500Z,2.00
2019-02-25T15:13:41.951Z,2.37
2019-02-25T15:16:10.232Z,2.22
2019-02-25T15:18:38.522Z,2.17
2019-02-25T15:21:08.528Z,2.05
2019-02-25T15:23:36.748Z,2.40
2019-02-25T15:26:06.775Z,2.40
2019-02-25T15:28:34.753Z,2.20
2019-02-25T15:31:04.333Z,2.33
2019-02-25T15:33:33.654Z,2.40
2019-02-25T15:36:02.905Z,2.33
2019-02-25T15:38:33.125Z,2.08
2019-02-25T15:41:02.693Z,3.20
2019-02-25T15:43:31.933Z,2.40
2019-02-25T15:46:00.137Z,2.42
2019-02-25T15:48:29.037Z,3.10
2019-02-25T15:51:00.627Z,3.20
2019-02-25T15:53:28.481Z,3.15
2019-02-25T15:55:59.176Z,2.62
2019-02-25T15:58:26.768Z,3.20
2019-02-25T16:00:54.918Z,3.20
2019-02-25T16:03:23.207Z,3.10
2019-02-25T16:05:54.469Z,3.30
2019-02-25T16:08:23.589Z,3.58
2019-02-25T16:10:53.047Z,3.27
2019-02-25T16:13:21.527Z,3.45
2019-02-25T16:15:49.753Z,4.12
2019-02-25T16:18:17.962Z,4.83
2019-02-25T16:20:46.342Z,4.40
2019-02-25T16:23:14.530Z,4.00
2019-02-25T16:25:43.318Z,5.35
2019-02-25T16:28:13.068Z,6.28
2019-02-25T16:30:42.428Z,6.72
2019-02-25T16:33:12.623Z,5.72
2019-02-25T16:35:43.057Z,4.92
2019-02-25T16:38:11.154Z,5.00
2019-02-25T16:40:40.152Z,4.83
2019-02-25T16:43:12.061Z,5.03
2019-02-25T16:45:40.176Z,5.17
2019-02-25T16:48:08.791Z,5.05
2019-02-25T16:50:39.197Z,5.50
2019-02-25T16:53:08.529Z,6.03
2019-02-25T16:55:37.081Z,6.23
2019-02-25T16:58:06.953Z,6.35
2019-02-25T17:00:37.098Z,6.00
2019-02-25T17:03:06.534Z,6.13
2019-02-25T17:05:37.366Z,6.20
2019-02-25T17:08:06.263Z,6.67
2019-02-25T17:10:35.311Z,7.22
2019-02-25T17:13:03.604Z,8.00
2019-02-25T17:15:31.892Z,7.97
2019-02-25T17:18:00.700Z,7.37
2019-02-25T17:20:29.457Z,8.20
2019-02-25T17:22:59.674Z,8.17
2019-02-25T17:25:31.337Z,8.73
2019-02-25T17:27:57.557Z,7.95
2019-02-25T17:30:26.271Z,8.10
2019-02-25T17:32:54.421Z,7.78
2019-02-25T17:35:26.624Z,7.83
2019-02-25T17:37:56.254Z,8.43
2019-02-25T17:40:23.981Z,7.45
2019-02-25T17:42:54.047Z,7.90
2019-02-25T17:45:29.999Z,7.28
2019-02-25T17:48:03.212Z,7.33
2019-02-25T17:50:30.260Z,7.23
2019-02-25T17:53:00.808Z,6.90
2019-02-25T17:55:31.124Z,6.40
2019-02-25T17:58:00.991Z,6.70
2019-02-25T18:00:42.277Z,6.33
2019-02-25T18:03:09.907Z,7.03
2019-02-25T18:05:40.563Z,7.23
2019-02-25T18:08:12.393Z,6.13
2019-02-25T18:10:40.254Z,5.80
2019-02-25T18:13:10.933Z,5.80
2019-02-25T18:15:38.769Z,5.47
2019-02-25T18:18:09.261Z,5.43
2019-02-25T18:20:38.916Z,6.20
2019-02-25T18:23:07.031Z,6.00
2019-02-25T18:25:35.188Z,5.40
2019-02-25T18:28:06.307Z,5.10
2019-02-25T18:30:35.194Z,5.10
2019-02-25T18:33:05.254Z,5.40
2019-02-25T18:35:35.768Z,5.13
2019-02-25T18:38:06.582Z,5.30
2019-02-25T18:40:33.961Z,4.80
2019-02-25T18:43:04.403Z,5.33
2019-02-25T18:45:35.413Z,6.50
2019-02-25T18:48:03.454Z,7.00
2019-02-25T18:50:31.746Z,6.20
2019-02-25T18:53:01.349Z,7.30
2019-02-25T18:55:31.552Z,6.63
2019-02-25T18:57:59.718Z,6.50
2019-02-25T19:00:31.325Z,6.07
2019-02-25T19:03:00.423Z,6.60
2019-02-25T19:05:31.268Z,7.00
2019-02-25T19:07:59.725Z,6.23
2019-02-25T19:10:28.251Z,6.10
2019-02-25T19:12:58.645Z,6.60
2019-02-25T19:15:26.892Z,6.20
2019-02-25T19:17:55.105Z,6.40
2019-02-25T19:20:24.623Z,6.00
2019-02-25T19:22:52.779Z,6.27
2019-02-25T19:25:22.986Z,6.03
2019-02-25T19:27:52.715Z,6.27
2019-02-25T19:30:22.302Z,6.30
2019-02-25T19:32:51.062Z,6.60
2019-02-25T19:35:19.442Z,6.43
2019-02-25T19:37:49.343Z,6.77
2019-02-25T19:40:24.314Z,6.90
2019-02-25T19:42:56.835Z,7.83
2019-02-25T19:45:25.007Z,8.77
2019-02-25T19:47:55.343Z,8.30
2019-02-25T19:52:46.667Z,6.53
2019-02-25T19:55:15.827Z,7.17
2019-02-25T19:57:45.067Z,7.70
2019-02-25T20:00:27.711Z,6.67
2019-02-25T20:03:05.067Z,6.53
2019-02-25T20:05:27.026Z,6.70
2019-02-25T20:07:55.262Z,6.40
2019-02-25T20:10:23.491Z,6.47
2019-02-25T20:12:53.231Z,6.90
2019-02-25T20:15:25.086Z,6.87
2019-02-25T20:17:55.070Z,7.43
2019-02-25T20:20:23.381Z,6.80
2019-02-25T20:22:54.448Z,7.10
2019-02-25T20:25:24.531Z,7.17
2019-02-25T20:27:52.765Z,7.70
2019-02-25T20:30:23.698Z,8.40
2019-02-25T20:32:54.111Z,7.73
2019-02-25T20:35:24.415Z,7.33
2019-02-25T20:37:53.751Z,7.50
2019-02-25T20:40:25.530Z,8.30
2019-02-25T20:42:53.481Z,8.47
2019-02-25T20:45:23.752Z,8.40
2019-02-25T20:47:54.712Z,8.73
2019-02-25T20:50:23.668Z,8.90
2019-02-25T20:52:51.808Z,8.67
2019-02-25T20:55:20.114Z,8.37
2019-02-25T20:57:48.685Z,7.73
2019-02-25T21:00:19.922Z,7.83
2019-02-25T21:02:48.729Z,7.60
2019-02-25T21:05:19.474Z,8.60
2019-02-25T21:07:48.067Z,8.23
2019-02-25T21:10:19.270Z,8.70
2019-02-25T21:12:47.502Z,9.93
2019-02-25T21:15:16.346Z,11.87
2019-02-25T21:17:44.566Z,10.73
2019-02-25T21:20:13.566Z,10.23
2019-02-25T21:22:41.779Z,9.03
2019-02-25T21:25:10.486Z,8.20
2019-02-25T21:27:40.855Z,8.13
2019-02-25T21:30:19.363Z,8.80
2019-02-25T21:32:49.648Z,8.33
2019-02-25T21:35:17.923Z,7.93
2019-02-25T21:37:47.864Z,7.47
2019-02-25T21:40:24.479Z,8.00
2019-02-25T21:42:53.959Z,7.50
2019-02-25T21:45:24.506Z,7.20
2019-02-25T21:47:54.087Z,7.70
2019-02-25T21:50:22.074Z,7.77
2019-02-25T21:52:50.208Z,7.50
2019-02-25T21:55:18.671Z,7.37
2019-02-25T21:57:46.982Z,7.43
2019-02-25T22:00:16.667Z,6.77
2019-02-25T22:02:45.946Z,7.27
2019-02-25T22:05:16.624Z,7.53
2019-02-25T22:07:49.902Z,7.23
2019-02-25T22:10:15.874Z,6.90
2019-02-25T22:12:44.393Z,6.70
2019-02-25T22:15:15.323Z,6.87
2019-02-25T22:17:45.209Z,6.27
2019-02-25T22:20:14.368Z,7.43
2019-02-25T22:22:43.273Z,7.50
2019-02-25T22:25:14.096Z,7.00
2019-02-25T22:27:43.864Z,6.90
2019-02-25T22:30:14.551Z,6.87
2019-02-25T22:32:43.153Z,6.40
2019-02-25T22:35:12.854Z,6.93
2019-02-25T22:37:44.536Z,6.83
2019-02-25T22:40:17.207Z,6.80
2019-02-25T22:42:47.128Z,6.97
2019-02-25T22:45:18.985Z,7.03
2019-02-25T22:47:47.214Z,7.13
2019-02-25T22:50:15.449Z,7.37
2019-02-25T22:52:43.696Z,7.07
2019-02-25T22:55:14.900Z,7.03
2019-02-25T22:57:43.509Z,7.30
2019-02-25T23:00:14.621Z,7.33
2019-02-25T23:02:44.976Z,7.03
2019-02-25T23:05:14.508Z,7.10
2019-02-25T23:07:44.138Z,7.27
2019-02-25T23:10:15.252Z,7.50
2019-02-25T23:12:42.749Z,7.10
2019-02-25T23:15:11.268Z,7.17
2019-02-25T23:17:40.028Z,6.57
2019-02-25T23:20:10.815Z,7.47
2019-02-25T23:22:39.078Z,7.37
2019-02-25T23:25:10.506Z,7.33
2019-02-25T23:27:38.982Z,7.50
2019-02-25T23:30:11.205Z,7.30
2019-02-25T23:32:39.553Z,7.37
2019-02-25T23:35:11.448Z,7.93
2019-02-25T23:37:38.362Z,7.77
2019-02-25T23:40:12.517Z,8.03
2019-02-25T23:42:41.858Z,7.30
2019-02-25T23:45:13.007Z,8.57
2019-02-25T23:47:41.932Z,8.80
2019-02-25T23:50:13.709Z,8.63
2019-02-25T23:52:41.531Z,8.70
2019-02-25T23:55:12.224Z,8.70
2019-02-25T23:57:40.675Z,9.00
